sensor_id;sensor_type;location;lat;lon;timestamp;P1;durP1;ratioP1;P2;durP2;ratioP2
57848;SDS011;68645;44.762;21.516;2023-05-10T00:00:16;10.35;;;6.43;;
57848;SDS011;68645;44.762;21.516;2023-05-10T00:02:42;12.77;;;6.82;;
57848;SDS011;68645;44.762;21.516;2023-05-10T00:05:09;8.10;;;5.63;;
57848;SDS011;68645;44.762;21.516;2023-05-10T00:07:35;8.48;;;5.60;;
57848;SDS011;68645;44.762;21.516;2023-05-10T00:10:01;5.70;;;5.10;;
57848;SDS011;68645;44.762;21.516;2023-05-10T00:12:27;12.60;;;7.55;;
57848;SDS011;68645;44.762;21.516;2023-05-10T00:14:53;11.05;;;7.18;;
57848;SDS011;68645;44.762;21.516;2023-05-10T00:17:20;17.73;;;9.27;;
57848;SDS011;68645;44.762;21.516;2023-05-10T00:19:46;22.50;;;11.10;;
57848;SDS011;68645;44.762;21.516;2023-05-10T00:22:13;25.63;;;12.68;;
57848;SDS011;68645;44.762;21.516;2023-05-10T00:24:39;26.60;;;12.45;;
57848;SDS011;68645;44.762;21.516;2023-05-10T00:27:05;16.73;;;9.70;;
57848;SDS011;68645;44.762;21.516;2023-05-10T00:29:32;28.98;;;12.52;;
57848;SDS011;68645;44.762;21.516;2023-05-10T00:31:58;20.45;;;11.00;;
57848;SDS011;68645;44.762;21.516;2023-05-10T00:34:25;12.48;;;7.18;;
57848;SDS011;68645;44.762;21.516;2023-05-10T00:36:51;11.30;;;6.90;;
57848;SDS011;68645;44.762;21.516;2023-05-10T00:39:17;21.65;;;8.80;;
57848;SDS011;68645;44.762;21.516;2023-05-10T00:41:43;26.23;;;11.05;;
57848;SDS011;68645;44.762;21.516;2023-05-10T00:44:10;29.90;;;13.90;;
57848;SDS011;68645;44.762;21.516;2023-05-10T00:46:36;25.73;;;13.15;;
57848;SDS011;68645;44.762;21.516;2023-05-10T00:49:02;27.08;;;12.02;;
57848;SDS011;68645;44.762;21.516;2023-05-10T00:51:29;18.23;;;11.40;;
57848;SDS011;68645;44.762;21.516;2023-05-10T00:53:56;29.25;;;12.80;;
57848;SDS011;68645;44.762;21.516;2023-05-10T00:56:22;21.40;;;11.10;;
57848;SDS011;68645;44.762;21.516;2023-05-10T00:58:49;19.65;;;11.30;;
57848;SDS011;68645;44.762;21.516;2023-05-10T01:01:15;24.27;;;12.23;;
57848;SDS011;68645;44.762;21.516;2023-05-10T01:03:42;19.70;;;11.18;;
57848;SDS011;68645;44.762;21.516;2023-05-10T01:06:08;14.80;;;8.40;;
57848;SDS011;68645;44.762;21.516;2023-05-10T01:08:35;14.45;;;9.05;;
57848;SDS011;68645;44.762;21.516;2023-05-10T01:11:01;23.48;;;10.27;;
57848;SDS011;68645;44.762;21.516;2023-05-10T01:13:35;25.63;;;12.63;;
57848;SDS011;68645;44.762;21.516;2023-05-10T01:16:02;22.23;;;10.88;;
57848;SDS011;68645;44.762;21.516;2023-05-10T01:18:35;25.02;;;12.55;;
57848;SDS011;68645;44.762;21.516;2023-05-10T01:21:23;19.83;;;10.27;;
57848;SDS011;68645;44.762;21.516;2023-05-10T01:29:31;14.48;;;7.47;;
57848;SDS011;68645;44.762;21.516;2023-05-10T01:32:08;19.58;;;10.02;;
57848;SDS011;68645;44.762;21.516;2023-05-10T01:34:47;10.85;;;6.80;;
57848;SDS011;68645;44.762;21.516;2023-05-10T01:37:21;12.82;;;6.80;;
57848;SDS011;68645;44.762;21.516;2023-05-10T01:42:16;13.32;;;7.28;;
57848;SDS011;68645;44.762;21.516;2023-05-10T01:44:49;11.00;;;6.97;;
57848;SDS011;68645;44.762;21.516;2023-05-10T01:47:20;12.43;;;6.63;;
57848;SDS011;68645;44.762;21.516;2023-05-10T01:49:50;11.32;;;6.57;;
57848;SDS011;68645;44.762;21.516;2023-05-10T01:52:18;11.75;;;7.18;;
57848;SDS011;68645;44.762;21.516;2023-05-10T01:54:53;18.52;;;9.07;;
57848;SDS011;68645;44.762;21.516;2023-05-10T01:57:21;17.00;;;9.18;;
57848;SDS011;68645;44.762;21.516;2023-05-10T01:59:50;12.13;;;7.20;;
57848;SDS011;68645;44.762;21.516;2023-05-10T02:02:17;10.73;;;6.82;;
57848;SDS011;68645;44.762;21.516;2023-05-10T02:04:44;10.73;;;5.85;;
57848;SDS011;68645;44.762;21.516;2023-05-10T02:07:11;10.70;;;7.60;;
57848;SDS011;68645;44.762;21.516;2023-05-10T02:09:37;25.70;;;13.70;;
57848;SDS011;68645;44.762;21.516;2023-05-10T02:12:04;32.17;;;14.68;;
57848;SDS011;68645;44.762;21.516;2023-05-10T02:14:32;12.98;;;8.52;;
57848;SDS011;68645;44.762;21.516;2023-05-10T02:16:58;16.00;;;10.18;;
57848;SDS011;68645;44.762;21.516;2023-05-10T02:19:25;25.67;;;13.73;;
57848;SDS011;68645;44.762;21.516;2023-05-10T02:21:52;12.77;;;8.73;;
57848;SDS011;68645;44.762;21.516;2023-05-10T02:24:18;22.52;;;12.77;;
57848;SDS011;68645;44.762;21.516;2023-05-10T02:26:45;20.10;;;9.95;;
57848;SDS011;68645;44.762;21.516;2023-05-10T02:29:11;22.70;;;11.52;;
57848;SDS011;68645;44.762;21.516;2023-05-10T02:31:38;17.75;;;11.07;;
57848;SDS011;68645;44.762;21.516;2023-05-10T02:34:05;17.88;;;9.48;;
57848;SDS011;68645;44.762;21.516;2023-05-10T02:36:32;23.08;;;11.30;;
57848;SDS011;68645;44.762;21.516;2023-05-10T02:38:59;21.05;;;11.10;;
57848;SDS011;68645;44.762;21.516;2023-05-10T02:41:27;20.73;;;10.18;;
57848;SDS011;68645;44.762;21.516;2023-05-10T02:43:56;25.13;;;12.23;;
57848;SDS011;68645;44.762;21.516;2023-05-10T02:46:23;23.23;;;11.23;;
57848;SDS011;68645;44.762;21.516;2023-05-10T02:48:49;26.17;;;13.55;;
57848;SDS011;68645;44.762;21.516;2023-05-10T02:51:16;26.52;;;13.32;;
57848;SDS011;68645;44.762;21.516;2023-05-10T02:53:44;29.95;;;12.63;;
57848;SDS011;68645;44.762;21.516;2023-05-10T02:56:13;26.25;;;12.90;;
57848;SDS011;68645;44.762;21.516;2023-05-10T02:58:40;21.60;;;12.48;;
57848;SDS011;68645;44.762;21.516;2023-05-10T03:01:06;21.02;;;9.98;;
57848;SDS011;68645;44.762;21.516;2023-05-10T03:03:33;26.00;;;10.57;;
57848;SDS011;68645;44.762;21.516;2023-05-10T03:05:59;18.38;;;9.85;;
57848;SDS011;68645;44.762;21.516;2023-05-10T03:08:25;19.63;;;11.45;;
57848;SDS011;68645;44.762;21.516;2023-05-10T03:11:04;20.42;;;12.00;;
57848;SDS011;68645;44.762;21.516;2023-05-10T03:13:48;20.60;;;12.15;;
57848;SDS011;68645;44.762;21.516;2023-05-10T03:16:20;21.13;;;10.75;;
57848;SDS011;68645;44.762;21.516;2023-05-10T03:18:50;25.43;;;11.93;;
57848;SDS011;68645;44.762;21.516;2023-05-10T03:21:18;18.75;;;11.15;;
57848;SDS011;68645;44.762;21.516;2023-05-10T03:23:46;20.08;;;11.60;;
57848;SDS011;68645;44.762;21.516;2023-05-10T03:26:15;28.08;;;13.07;;
57848;SDS011;68645;44.762;21.516;2023-05-10T03:28:43;25.38;;;13.60;;
57848;SDS011;68645;44.762;21.516;2023-05-10T03:31:09;24.05;;;12.52;;
57848;SDS011;68645;44.762;21.516;2023-05-10T03:33:45;32.28;;;17.02;;
57848;SDS011;68645;44.762;21.516;2023-05-10T03:36:11;26.67;;;15.65;;
57848;SDS011;68645;44.762;21.516;2023-05-10T03:38:37;24.48;;;12.57;;
57848;SDS011;68645;44.762;21.516;2023-05-10T03:41:04;25.17;;;13.77;;
57848;SDS011;68645;44.762;21.516;2023-05-10T03:43:31;28.90;;;14.38;;
57848;SDS011;68645;44.762;21.516;2023-05-10T03:45:58;30.17;;;16.98;;
57848;SDS011;68645;44.762;21.516;2023-05-10T03:48:25;28.80;;;15.30;;
57848;SDS011;68645;44.762;21.516;2023-05-10T03:50:51;23.88;;;14.40;;
57848;SDS011;68645;44.762;21.516;2023-05-10T03:53:17;20.85;;;13.18;;
57848;SDS011;68645;44.762;21.516;2023-05-10T03:55:44;27.77;;;14.50;;
57848;SDS011;68645;44.762;21.516;2023-05-10T03:58:11;20.80;;;12.15;;
57848;SDS011;68645;44.762;21.516;2023-05-10T04:00:38;23.15;;;13.60;;
57848;SDS011;68645;44.762;21.516;2023-05-10T04:03:12;16.52;;;9.80;;
57848;SDS011;68645;44.762;21.516;2023-05-10T04:05:38;24.75;;;13.43;;
57848;SDS011;68645;44.762;21.516;2023-05-10T04:08:06;24.38;;;13.27;;
57848;SDS011;68645;44.762;21.516;2023-05-10T04:10:32;24.15;;;12.45;;
57848;SDS011;68645;44.762;21.516;2023-05-10T04:12:58;24.08;;;12.95;;
57848;SDS011;68645;44.762;21.516;2023-05-10T04:15:25;23.08;;;13.15;;
57848;SDS011;68645;44.762;21.516;2023-05-10T04:17:51;23.90;;;13.98;;
57848;SDS011;68645;44.762;21.516;2023-05-10T04:20:18;21.10;;;11.18;;
57848;SDS011;68645;44.762;21.516;2023-05-10T04:22:44;18.02;;;10.43;;
57848;SDS011;68645;44.762;21.516;2023-05-10T04:25:11;19.65;;;11.65;;
57848;SDS011;68645;44.762;21.516;2023-05-10T04:27:37;24.05;;;12.77;;
57848;SDS011;68645;44.762;21.516;2023-05-10T04:30:03;29.10;;;13.27;;
57848;SDS011;68645;44.762;21.516;2023-05-10T04:32:29;28.95;;;15.02;;
57848;SDS011;68645;44.762;21.516;2023-05-10T04:34:56;29.85;;;13.07;;
57848;SDS011;68645;44.762;21.516;2023-05-10T04:37:22;17.40;;;10.60;;
57848;SDS011;68645;44.762;21.516;2023-05-10T04:39:48;18.75;;;11.25;;
57848;SDS011;68645;44.762;21.516;2023-05-10T04:42:15;16.30;;;9.20;;
57848;SDS011;68645;44.762;21.516;2023-05-10T04:44:41;14.18;;;7.07;;
57848;SDS011;68645;44.762;21.516;2023-05-10T04:47:07;14.18;;;8.70;;
57848;SDS011;68645;44.762;21.516;2023-05-10T04:49:33;12.40;;;8.27;;
57848;SDS011;68645;44.762;21.516;2023-05-10T04:51:59;9.98;;;7.63;;
57848;SDS011;68645;44.762;21.516;2023-05-10T04:54:25;18.05;;;11.32;;
57848;SDS011;68645;44.762;21.516;2023-05-10T04:56:52;14.38;;;8.07;;
57848;SDS011;68645;44.762;21.516;2023-05-10T04:59:18;13.80;;;8.23;;
57848;SDS011;68645;44.762;21.516;2023-05-10T05:01:44;20.92;;;11.40;;
57848;SDS011;68645;44.762;21.516;2023-05-10T05:04:10;10.77;;;8.10;;
57848;SDS011;68645;44.762;21.516;2023-05-10T05:06:36;20.75;;;11.73;;
57848;SDS011;68645;44.762;21.516;2023-05-10T05:09:03;17.42;;;11.25;;
57848;SDS011;68645;44.762;21.516;2023-05-10T05:11:29;24.85;;;14.13;;
57848;SDS011;68645;44.762;21.516;2023-05-10T05:13:55;26.67;;;14.43;;
57848;SDS011;68645;44.762;21.516;2023-05-10T05:16:23;23.20;;;13.18;;
57848;SDS011;68645;44.762;21.516;2023-05-10T05:18:50;24.50;;;12.75;;
57848;SDS011;68645;44.762;21.516;2023-05-10T05:21:16;20.95;;;13.32;;
57848;SDS011;68645;44.762;21.516;2023-05-10T05:23:43;20.85;;;11.23;;
57848;SDS011;68645;44.762;21.516;2023-05-10T05:26:09;27.55;;;15.10;;
57848;SDS011;68645;44.762;21.516;2023-05-10T05:28:36;24.58;;;13.65;;
57848;SDS011;68645;44.762;21.516;2023-05-10T05:31:05;24.80;;;13.32;;
57848;SDS011;68645;44.762;21.516;2023-05-10T05:33:35;18.20;;;11.60;;
57848;SDS011;68645;44.762;21.516;2023-05-10T05:36:04;26.15;;;14.88;;
57848;SDS011;68645;44.762;21.516;2023-05-10T05:38:31;29.80;;;13.07;;
57848;SDS011;68645;44.762;21.516;2023-05-10T05:40:57;23.33;;;15.02;;
57848;SDS011;68645;44.762;21.516;2023-05-10T05:43:23;24.20;;;13.95;;
57848;SDS011;68645;44.762;21.516;2023-05-10T05:45:51;25.77;;;12.93;;
57848;SDS011;68645;44.762;21.516;2023-05-10T05:48:18;25.70;;;13.18;;
57848;SDS011;68645;44.762;21.516;2023-05-10T05:50:45;28.88;;;15.32;;
57848;SDS011;68645;44.762;21.516;2023-05-10T05:53:11;25.27;;;13.65;;
57848;SDS011;68645;44.762;21.516;2023-05-10T05:55:38;19.75;;;12.73;;
57848;SDS011;68645;44.762;21.516;2023-05-10T05:58:04;24.20;;;12.38;;
57848;SDS011;68645;44.762;21.516;2023-05-10T06:00:30;21.45;;;12.35;;
57848;SDS011;68645;44.762;21.516;2023-05-10T06:02:56;20.42;;;12.20;;
57848;SDS011;68645;44.762;21.516;2023-05-10T06:05:22;23.42;;;12.70;;
57848;SDS011;68645;44.762;21.516;2023-05-10T06:07:48;19.88;;;11.45;;
57848;SDS011;68645;44.762;21.516;2023-05-10T06:10:15;20.85;;;10.75;;
57848;SDS011;68645;44.762;21.516;2023-05-10T06:12:41;25.33;;;13.45;;
57848;SDS011;68645;44.762;21.516;2023-05-10T06:15:07;20.30;;;9.32;;
57848;SDS011;68645;44.762;21.516;2023-05-10T06:17:34;15.23;;;7.80;;
57848;SDS011;68645;44.762;21.516;2023-05-10T06:20:00;13.77;;;7.75;;
57848;SDS011;68645;44.762;21.516;2023-05-10T06:22:26;11.02;;;7.07;;
57848;SDS011;68645;44.762;21.516;2023-05-10T06:24:52;18.35;;;7.85;;
57848;SDS011;68645;44.762;21.516;2023-05-10T06:27:18;13.25;;;7.35;;
57848;SDS011;68645;44.762;21.516;2023-05-10T06:29:45;12.32;;;7.55;;
57848;SDS011;68645;44.762;21.516;2023-05-10T06:32:11;17.98;;;8.98;;
57848;SDS011;68645;44.762;21.516;2023-05-10T06:34:37;7.63;;;5.90;;
57848;SDS011;68645;44.762;21.516;2023-05-10T06:37:03;10.23;;;6.10;;
57848;SDS011;68645;44.762;21.516;2023-05-10T06:39:29;10.57;;;5.80;;
57848;SDS011;68645;44.762;21.516;2023-05-10T06:41:55;10.02;;;5.18;;
57848;SDS011;68645;44.762;21.516;2023-05-10T06:44:22;11.50;;;5.85;;
57848;SDS011;68645;44.762;21.516;2023-05-10T06:46:48;11.25;;;6.80;;
57848;SDS011;68645;44.762;21.516;2023-05-10T06:49:15;13.00;;;6.50;;
57848;SDS011;68645;44.762;21.516;2023-05-10T06:51:41;13.18;;;5.65;;
57848;SDS011;68645;44.762;21.516;2023-05-10T06:54:07;8.13;;;5.22;;
57848;SDS011;68645;44.762;21.516;2023-05-10T06:56:33;11.20;;;5.65;;
57848;SDS011;68645;44.762;21.516;2023-05-10T06:59:00;8.52;;;5.13;;
57848;SDS011;68645;44.762;21.516;2023-05-10T07:01:26;13.85;;;7.22;;
57848;SDS011;68645;44.762;21.516;2023-05-10T07:03:52;19.20;;;9.40;;
57848;SDS011;68645;44.762;21.516;2023-05-10T07:06:19;14.43;;;7.47;;
57848;SDS011;68645;44.762;21.516;2023-05-10T07:08:45;18.38;;;9.38;;
57848;SDS011;68645;44.762;21.516;2023-05-10T07:11:11;19.25;;;8.45;;
57848;SDS011;68645;44.762;21.516;2023-05-10T07:13:37;14.10;;;8.20;;
57848;SDS011;68645;44.762;21.516;2023-05-10T07:16:06;10.38;;;6.75;;
57848;SDS011;68645;44.762;21.516;2023-05-10T07:18:33;14.65;;;8.27;;
57848;SDS011;68645;44.762;21.516;2023-05-10T07:20:59;13.35;;;7.75;;
57848;SDS011;68645;44.762;21.516;2023-05-10T07:23:25;15.10;;;8.45;;
57848;SDS011;68645;44.762;21.516;2023-05-10T07:25:51;16.73;;;8.60;;
57848;SDS011;68645;44.762;21.516;2023-05-10T07:28:18;15.93;;;7.70;;
57848;SDS011;68645;44.762;21.516;2023-05-10T07:30:44;15.45;;;7.60;;
57848;SDS011;68645;44.762;21.516;2023-05-10T07:33:11;17.35;;;6.97;;
57848;SDS011;68645;44.762;21.516;2023-05-10T07:35:38;13.85;;;7.63;;
57848;SDS011;68645;44.762;21.516;2023-05-10T07:38:04;10.88;;;5.78;;
57848;SDS011;68645;44.762;21.516;2023-05-10T07:40:31;14.93;;;7.78;;
57848;SDS011;68645;44.762;21.516;2023-05-10T07:42:57;12.45;;;6.88;;
57848;SDS011;68645;44.762;21.516;2023-05-10T07:45:23;16.50;;;7.97;;
57848;SDS011;68645;44.762;21.516;2023-05-10T07:47:49;14.43;;;8.10;;
57848;SDS011;68645;44.762;21.516;2023-05-10T07:50:16;23.90;;;6.60;;
57848;SDS011;68645;44.762;21.516;2023-05-10T07:52:42;11.90;;;5.72;;
57848;SDS011;68645;44.762;21.516;2023-05-10T07:55:08;9.95;;;5.65;;
57848;SDS011;68645;44.762;21.516;2023-05-10T07:57:35;6.50;;;4.55;;
57848;SDS011;68645;44.762;21.516;2023-05-10T08:00:01;9.55;;;5.60;;
57848;SDS011;68645;44.762;21.516;2023-05-10T08:02:28;10.80;;;6.60;;
57848;SDS011;68645;44.762;21.516;2023-05-10T08:04:54;9.68;;;5.40;;
57848;SDS011;68645;44.762;21.516;2023-05-10T08:07:21;12.02;;;7.43;;
57848;SDS011;68645;44.762;21.516;2023-05-10T08:09:47;12.52;;;6.20;;
57848;SDS011;68645;44.762;21.516;2023-05-10T08:12:13;11.63;;;5.38;;
57848;SDS011;68645;44.762;21.516;2023-05-10T08:14:39;10.48;;;4.50;;
57848;SDS011;68645;44.762;21.516;2023-05-10T08:17:05;8.65;;;4.30;;
57848;SDS011;68645;44.762;21.516;2023-05-10T08:19:32;8.40;;;4.50;;
57848;SDS011;68645;44.762;21.516;2023-05-10T08:21:58;7.75;;;4.00;;
57848;SDS011;68645;44.762;21.516;2023-05-10T08:24:24;10.02;;;4.75;;
57848;SDS011;68645;44.762;21.516;2023-05-10T08:26:51;8.15;;;4.15;;
57848;SDS011;68645;44.762;21.516;2023-05-10T08:29:17;6.43;;;3.33;;
57848;SDS011;68645;44.762;21.516;2023-05-10T08:31:43;6.88;;;3.60;;
57848;SDS011;68645;44.762;21.516;2023-05-10T08:34:10;9.57;;;4.43;;
57848;SDS011;68645;44.762;21.516;2023-05-10T08:36:36;7.32;;;3.47;;
57848;SDS011;68645;44.762;21.516;2023-05-10T08:39:02;9.98;;;4.10;;
57848;SDS011;68645;44.762;21.516;2023-05-10T08:41:28;9.23;;;3.47;;
57848;SDS011;68645;44.762;21.516;2023-05-10T08:43:55;7.10;;;4.05;;
57848;SDS011;68645;44.762;21.516;2023-05-10T08:46:22;7.65;;;3.58;;
57848;SDS011;68645;44.762;21.516;2023-05-10T08:48:49;13.43;;;4.32;;
57848;SDS011;68645;44.762;21.516;2023-05-10T08:51:21;8.30;;;4.05;;
57848;SDS011;68645;44.762;21.516;2023-05-10T08:53:48;14.10;;;4.63;;
57848;SDS011;68645;44.762;21.516;2023-05-10T08:56:15;13.68;;;5.70;;
57848;SDS011;68645;44.762;21.516;2023-05-10T08:58:43;11.55;;;5.32;;
57848;SDS011;68645;44.762;21.516;2023-05-10T09:01:09;7.25;;;3.78;;
57848;SDS011;68645;44.762;21.516;2023-05-10T09:03:38;8.00;;;3.28;;
57848;SDS011;68645;44.762;21.516;2023-05-10T09:06:04;10.40;;;5.60;;
57848;SDS011;68645;44.762;21.516;2023-05-10T09:08:30;14.50;;;4.53;;
57848;SDS011;68645;44.762;21.516;2023-05-10T09:10:56;15.18;;;6.07;;
57848;SDS011;68645;44.762;21.516;2023-05-10T09:13:23;13.55;;;5.43;;
57848;SDS011;68645;44.762;21.516;2023-05-10T09:15:51;14.93;;;4.47;;
57848;SDS011;68645;44.762;21.516;2023-05-10T09:18:17;18.52;;;6.72;;
57848;SDS011;68645;44.762;21.516;2023-05-10T09:20:44;11.02;;;4.80;;
57848;SDS011;68645;44.762;21.516;2023-05-10T09:23:10;19.95;;;5.43;;
57848;SDS011;68645;44.762;21.516;2023-05-10T09:25:36;14.98;;;4.35;;
57848;SDS011;68645;44.762;21.516;2023-05-10T09:28:05;13.63;;;6.43;;
57848;SDS011;68645;44.762;21.516;2023-05-10T09:30:33;17.30;;;8.57;;
57848;SDS011;68645;44.762;21.516;2023-05-10T09:32:59;12.52;;;5.78;;
57848;SDS011;68645;44.762;21.516;2023-05-10T09:35:26;17.17;;;6.82;;
57848;SDS011;68645;44.762;21.516;2023-05-10T09:37:54;10.82;;;4.47;;
57848;SDS011;68645;44.762;21.516;2023-05-10T09:40:21;17.25;;;7.93;;
57848;SDS011;68645;44.762;21.516;2023-05-10T09:42:51;11.68;;;5.82;;
57848;SDS011;68645;44.762;21.516;2023-05-10T09:45:18;16.48;;;6.43;;
57848;SDS011;68645;44.762;21.516;2023-05-10T09:47:45;20.85;;;6.57;;
57848;SDS011;68645;44.762;21.516;2023-05-10T09:50:11;14.65;;;5.25;;
57848;SDS011;68645;44.762;21.516;2023-05-10T09:52:47;8.40;;;4.60;;
57848;SDS011;68645;44.762;21.516;2023-05-10T09:55:14;13.68;;;6.25;;
57848;SDS011;68645;44.762;21.516;2023-05-10T09:57:40;11.63;;;5.60;;
57848;SDS011;68645;44.762;21.516;2023-05-10T10:00:07;7.40;;;4.13;;
57848;SDS011;68645;44.762;21.516;2023-05-10T10:02:35;9.93;;;5.47;;
57848;SDS011;68645;44.762;21.516;2023-05-10T10:05:01;17.40;;;6.97;;
57848;SDS011;68645;44.762;21.516;2023-05-10T10:07:28;20.85;;;6.43;;
57848;SDS011;68645;44.762;21.516;2023-05-10T10:09:54;17.52;;;5.13;;
57848;SDS011;68645;44.762;21.516;2023-05-10T10:12:21;15.98;;;7.25;;
57848;SDS011;68645;44.762;21.516;2023-05-10T10:14:47;7.40;;;5.45;;
57848;SDS011;68645;44.762;21.516;2023-05-10T10:17:15;11.77;;;6.78;;
57848;SDS011;68645;44.762;21.516;2023-05-10T10:19:42;13.07;;;6.13;;
57848;SDS011;68645;44.762;21.516;2023-05-10T10:22:08;25.00;;;10.60;;
57848;SDS011;68645;44.762;21.516;2023-05-10T10:24:38;18.48;;;10.18;;
57848;SDS011;68645;44.762;21.516;2023-05-10T10:27:21;16.40;;;6.30;;
57848;SDS011;68645;44.762;21.516;2023-05-10T10:29:52;17.80;;;5.80;;
57848;SDS011;68645;44.762;21.516;2023-05-10T10:32:30;19.05;;;9.90;;
57848;SDS011;68645;44.762;21.516;2023-05-10T10:34:59;17.30;;;6.70;;
57848;SDS011;68645;44.762;21.516;2023-05-10T10:37:40;18.42;;;7.80;;
57848;SDS011;68645;44.762;21.516;2023-05-10T10:42:52;7.95;;;4.22;;
57848;SDS011;68645;44.762;21.516;2023-05-10T10:45:19;17.13;;;10.05;;
57848;SDS011;68645;44.762;21.516;2023-05-10T10:47:46;14.77;;;8.45;;
57848;SDS011;68645;44.762;21.516;2023-05-10T10:50:12;23.02;;;12.73;;
57848;SDS011;68645;44.762;21.516;2023-05-10T10:55:06;11.40;;;3.67;;
57848;SDS011;68645;44.762;21.516;2023-05-10T10:57:42;12.48;;;6.50;;
57848;SDS011;68645;44.762;21.516;2023-05-10T11:00:27;9.75;;;4.80;;
57848;SDS011;68645;44.762;21.516;2023-05-10T11:02:58;7.47;;;4.10;;
57848;SDS011;68645;44.762;21.516;2023-05-10T11:07:54;11.45;;;4.72;;
57848;SDS011;68645;44.762;21.516;2023-05-10T11:10:20;10.43;;;5.72;;
57848;SDS011;68645;44.762;21.516;2023-05-10T11:12:54;17.80;;;8.20;;
57848;SDS011;68645;44.762;21.516;2023-05-10T11:15:31;23.90;;;6.82;;
57848;SDS011;68645;44.762;21.516;2023-05-10T11:17:57;16.30;;;6.75;;
57848;SDS011;68645;44.762;21.516;2023-05-10T11:20:26;14.07;;;7.97;;
57848;SDS011;68645;44.762;21.516;2023-05-10T11:22:58;19.80;;;9.65;;
57848;SDS011;68645;44.762;21.516;2023-05-10T11:25:40;22.30;;;11.55;;
57848;SDS011;68645;44.762;21.516;2023-05-10T11:28:07;21.95;;;8.60;;
57848;SDS011;68645;44.762;21.516;2023-05-10T11:30:33;7.95;;;4.40;;
57848;SDS011;68645;44.762;21.516;2023-05-10T11:32:59;7.30;;;3.85;;
57848;SDS011;68645;44.762;21.516;2023-05-10T11:35:27;11.63;;;6.05;;
57848;SDS011;68645;44.762;21.516;2023-05-10T11:37:53;15.50;;;8.70;;
57848;SDS011;68645;44.762;21.516;2023-05-10T11:40:21;15.55;;;8.90;;
57848;SDS011;68645;44.762;21.516;2023-05-10T11:42:49;11.93;;;6.87;;
57848;SDS011;68645;44.762;21.516;2023-05-10T11:45:16;8.52;;;4.10;;
57848;SDS011;68645;44.762;21.516;2023-05-10T11:47:42;7.10;;;4.30;;
57848;SDS011;68645;44.762;21.516;2023-05-10T11:50:09;13.50;;;4.35;;
57848;SDS011;68645;44.762;21.516;2023-05-10T11:52:35;16.95;;;7.70;;
57848;SDS011;68645;44.762;21.516;2023-05-10T11:55:05;8.63;;;4.60;;
57848;SDS011;68645;44.762;21.516;2023-05-10T11:57:31;8.57;;;4.50;;
57848;SDS011;68645;44.762;21.516;2023-05-10T11:59:57;14.07;;;6.70;;
57848;SDS011;68645;44.762;21.516;2023-05-10T12:02:23;12.10;;;5.22;;
57848;SDS011;68645;44.762;21.516;2023-05-10T12:04:50;14.00;;;6.45;;
57848;SDS011;68645;44.762;21.516;2023-05-10T12:07:16;17.20;;;6.97;;
57848;SDS011;68645;44.762;21.516;2023-05-10T12:09:43;8.88;;;4.70;;
57848;SDS011;68645;44.762;21.516;2023-05-10T12:12:15;15.77;;;7.38;;
57848;SDS011;68645;44.762;21.516;2023-05-10T12:14:42;7.35;;;4.80;;
57848;SDS011;68645;44.762;21.516;2023-05-10T12:17:11;6.80;;;4.05;;
57848;SDS011;68645;44.762;21.516;2023-05-10T12:19:38;10.03;;;5.00;;
57848;SDS011;68645;44.762;21.516;2023-05-10T12:22:05;11.98;;;5.13;;
57848;SDS011;68645;44.762;21.516;2023-05-10T12:24:33;14.38;;;5.13;;
57848;SDS011;68645;44.762;21.516;2023-05-10T12:26:59;13.20;;;7.45;;
57848;SDS011;68645;44.762;21.516;2023-05-10T12:29:25;9.40;;;4.07;;
57848;SDS011;68645;44.762;21.516;2023-05-10T12:31:56;11.10;;;3.60;;
57848;SDS011;68645;44.762;21.516;2023-05-10T12:34:32;13.25;;;3.53;;
57848;SDS011;68645;44.762;21.516;2023-05-10T12:36:59;11.40;;;5.70;;
57848;SDS011;68645;44.762;21.516;2023-05-10T12:39:25;13.02;;;5.35;;
57848;SDS011;68645;44.762;21.516;2023-05-10T12:41:51;8.07;;;3.92;;
57848;SDS011;68645;44.762;21.516;2023-05-10T12:44:18;7.90;;;3.00;;
57848;SDS011;68645;44.762;21.516;2023-05-10T12:46:44;13.35;;;5.55;;
57848;SDS011;68645;44.762;21.516;2023-05-10T12:49:10;24.23;;;4.65;;
57848;SDS011;68645;44.762;21.516;2023-05-10T12:51:36;8.25;;;4.28;;
57848;SDS011;68645;44.762;21.516;2023-05-10T12:54:03;8.15;;;3.30;;
57848;SDS011;68645;44.762;21.516;2023-05-10T12:56:29;19.73;;;7.85;;
57848;SDS011;68645;44.762;21.516;2023-05-10T12:58:55;16.27;;;4.90;;
57848;SDS011;68645;44.762;21.516;2023-05-10T13:01:21;14.45;;;4.70;;
57848;SDS011;68645;44.762;21.516;2023-05-10T13:03:47;15.07;;;6.05;;
57848;SDS011;68645;44.762;21.516;2023-05-10T13:06:13;24.95;;;10.15;;
57848;SDS011;68645;44.762;21.516;2023-05-10T13:08:39;14.60;;;5.97;;
57848;SDS011;68645;44.762;21.516;2023-05-10T13:11:06;9.35;;;5.35;;
57848;SDS011;68645;44.762;21.516;2023-05-10T13:13:32;13.68;;;3.20;;
57848;SDS011;68645;44.762;21.516;2023-05-10T13:15:58;9.00;;;4.32;;
57848;SDS011;68645;44.762;21.516;2023-05-10T13:18:24;17.92;;;4.78;;
57848;SDS011;68645;44.762;21.516;2023-05-10T13:20:51;9.50;;;3.22;;
57848;SDS011;68645;44.762;21.516;2023-05-10T13:23:17;8.27;;;3.05;;
57848;SDS011;68645;44.762;21.516;2023-05-10T13:25:43;18.45;;;6.00;;
57848;SDS011;68645;44.762;21.516;2023-05-10T13:28:09;20.38;;;9.00;;
57848;SDS011;68645;44.762;21.516;2023-05-10T13:30:35;8.55;;;4.25;;
57848;SDS011;68645;44.762;21.516;2023-05-10T13:33:02;11.35;;;4.22;;
57848;SDS011;68645;44.762;21.516;2023-05-10T13:35:28;11.35;;;4.47;;
57848;SDS011;68645;44.762;21.516;2023-05-10T13:37:54;13.48;;;5.70;;
57848;SDS011;68645;44.762;21.516;2023-05-10T13:40:22;9.05;;;2.97;;
57848;SDS011;68645;44.762;21.516;2023-05-10T13:42:48;7.25;;;3.90;;
57848;SDS011;68645;44.762;21.516;2023-05-10T13:45:14;13.32;;;5.45;;
57848;SDS011;68645;44.762;21.516;2023-05-10T13:47:41;13.52;;;4.32;;
57848;SDS011;68645;44.762;21.516;2023-05-10T13:50:07;16.42;;;7.60;;
57848;SDS011;68645;44.762;21.516;2023-05-10T13:52:33;11.32;;;5.22;;
57848;SDS011;68645;44.762;21.516;2023-05-10T13:55:00;11.70;;;4.60;;
57848;SDS011;68645;44.762;21.516;2023-05-10T13:57:26;15.65;;;6.72;;
57848;SDS011;68645;44.762;21.516;2023-05-10T13:59:53;15.05;;;6.22;;
57848;SDS011;68645;44.762;21.516;2023-05-10T14:02:20;17.02;;;6.70;;
57848;SDS011;68645;44.762;21.516;2023-05-10T14:04:46;9.43;;;3.33;;
57848;SDS011;68645;44.762;21.516;2023-05-10T14:07:13;19.90;;;5.57;;
57848;SDS011;68645;44.762;21.516;2023-05-10T14:09:39;19.63;;;7.20;;
57848;SDS011;68645;44.762;21.516;2023-05-10T14:12:05;17.38;;;4.45;;
57848;SDS011;68645;44.762;21.516;2023-05-10T14:14:31;8.60;;;3.40;;
57848;SDS011;68645;44.762;21.516;2023-05-10T14:16:57;8.20;;;4.28;;
57848;SDS011;68645;44.762;21.516;2023-05-10T14:19:24;9.90;;;2.90;;
57848;SDS011;68645;44.762;21.516;2023-05-10T14:21:51;8.60;;;4.20;;
57848;SDS011;68645;44.762;21.516;2023-05-10T14:24:18;8.65;;;3.35;;
57848;SDS011;68645;44.762;21.516;2023-05-10T14:26:44;7.25;;;2.90;;
57848;SDS011;68645;44.762;21.516;2023-05-10T14:29:10;31.15;;;4.45;;
57848;SDS011;68645;44.762;21.516;2023-05-10T14:31:36;7.70;;;3.35;;
57848;SDS011;68645;44.762;21.516;2023-05-10T14:34:02;5.40;;;3.28;;
57848;SDS011;68645;44.762;21.516;2023-05-10T14:36:28;10.45;;;3.55;;